Time;durP1;ratioP1;P1;durP2;ratioP2;P2;SDS_P1;SDS_P2;PMS_P1;PMS_P2;Temp;Humidity;BMP_temperature;BMP_pressure;BME280_temperature;BME280_humidity;BME280_pressure;Samples;Min_cycle;Max_cycle;Signal;HPM_P1;HPM_P2
2022/03/02 00:00:35;;;;;;;21.60;8.17;;;;;;;-145.69;74.07;73617.72;5093813;28;20399;-76
2022/03/02 00:03:02;;;;;;;20.30;8.50;;;;;;;-145.69;74.86;73627.69;5093417;28;20197;-76
2022/03/02 00:05:31;;;;;;;22.30;8.73;;;;;;;-145.69;75.65;73629.66;5093863;28;20202;-76
2022/03/02 00:07:57;;;;;;;19.10;8.20;;;;;;;-145.69;74.15;73605.78;5093713;28;20194;-76
2022/03/02 00:10:24;;;;;;;15.87;7.80;;;;;;;-145.69;73.99;73603.78;5093729;28;20205;-76
2022/03/02 00:12:52;;;;;;;19.97;7.80;;;;;;;-145.69;73.65;73611.75;5093619;28;20204;-76
2022/03/02 00:15:19;;;;;;;16.17;7.13;;;;;;;-145.69;72.45;73575.91;5093342;28;20220;-76
2022/03/02 00:17:46;;;;;;;19.77;7.93;;;;;;;-145.69;73.41;73573.94;5093532;28;20293;-76
2022/03/02 00:20:13;;;;;;;19.00;7.83;;;;;;;-145.69;72.28;73565.97;5093241;28;20234;-76
2022/03/02 00:22:40;;;;;;;16.87;7.87;;;;;;;-145.69;71.47;73560.00;5091349;28;20228;-76
2022/03/02 00:25:07;;;;;;;18.27;7.50;;;;;;;-145.69;71.95;73563.97;5093150;28;20253;-76
2022/03/02 00:27:34;;;;;;;17.83;7.43;;;;;;;-145.69;71.71;73571.94;5102630;28;20205;-76
2022/03/02 00:30:02;;;;;;;16.13;6.70;;;;;;;-145.69;71.51;73548.03;5113765;27;20199;-76
2022/03/02 00:32:33;;;;;;;19.83;8.17;;;;;;;-145.69;71.35;73546.06;5113777;28;20216;-76
2022/03/02 00:34:59;;;;;;;16.50;7.10;;;;;;;-145.69;71.05;73548.03;5113631;27;20655;-76
2022/03/02 00:37:26;;;;;;;17.90;7.37;;;;;;;-145.69;71.51;73544.06;5113610;28;20201;-76
2022/03/02 00:39:55;;;;;;;15.83;7.10;;;;;;;-145.69;72.17;73548.03;5112265;27;20197;-76
2022/03/02 00:42:22;;;;;;;20.50;7.37;;;;;;;-145.69;72.06;73542.06;5074858;28;20195;-76
2022/03/02 00:44:49;;;;;;;14.03;6.90;;;;;;;-145.69;71.36;73528.13;5072864;28;20234;-76
2022/03/02 00:47:18;;;;;;;18.03;7.77;;;;;;;-145.69;71.41;73540.06;5073094;28;20195;-76
2022/03/02 00:49:45;;;;;;;21.97;7.10;;;;;;;-145.69;71.55;73550.03;5072937;28;20199;-76
2022/03/02 00:52:14;;;;;;;16.97;7.33;;;;;;;-145.69;71.47;73536.09;5072763;28;20203;-76
2022/03/02 00:54:41;;;;;;;20.30;7.17;;;;;;;-145.69;71.52;73532.13;5072434;28;20201;-76
2022/03/02 00:57:07;;;;;;;15.93;7.27;;;;;;;-145.69;70.61;73532.13;5091040;28;20197;-76
2022/03/02 00:59:34;;;;;;;16.10;6.60;;;;;;;-145.69;69.91;73524.16;5114181;28;20201;-76
2022/03/02 01:02:03;;;;;;;17.17;7.30;;;;;;;-145.69;71.36;73538.09;5117723;28;20587;-77
2022/03/02 01:04:32;;;;;;;16.90;6.67;;;;;;;-145.69;70.52;73544.06;5117643;28;20228;-76
2022/03/02 01:06:59;;;;;;;14.53;6.73;;;;;;;-145.69;72.26;73575.91;5117518;28;20287;-76
2022/03/02 01:09:26;;;;;;;20.93;7.07;;;;;;;-145.69;74.74;73607.78;5117410;28;20534;-76
2022/03/02 01:11:53;;;;;;;18.33;7.53;;;;;;;-145.69;75.82;73619.72;5117321;28;20652;-76
2022/03/02 01:14:20;;;;;;;19.03;7.47;;;;;;;-145.69;74.23;73605.78;5117538;28;20208;-76
2022/03/02 01:16:46;;;;;;;16.00;7.20;;;;;;;-145.69;73.90;73597.81;5117379;28;20208;-76
2022/03/02 01:19:15;;;;;;;20.80;7.20;;;;;;;-145.69;73.59;73587.88;5117257;28;20233;-76
2022/03/02 01:21:43;;;;;;;16.17;6.57;;;;;;;-145.69;73.61;73583.88;5117228;28;20208;-76
2022/03/02 01:24:09;;;;;;;12.33;6.00;;;;;;;-145.69;73.95;73585.88;5116896;28;20232;-76
2022/03/02 01:26:36;;;;;;;14.97;5.80;;;;;;;-145.69;72.86;73573.94;5113029;28;20637;-76
2022/03/02 01:29:04;;;;;;;15.30;6.47;;;;;;;-145.69;73.57;73591.84;5096741;28;20206;-76
2022/03/02 01:31:30;;;;;;;17.20;6.60;;;;;;;-145.69;74.78;73621.72;5096770;28;20202;-76
2022/03/02 01:33:58;;;;;;;15.37;6.60;;;;;;;-145.69;77.30;73663.53;5096753;28;20209;-76
2022/03/02 01:36:25;;;;;;;13.37;6.10;;;;;;;-145.69;77.15;73665.50;5096667;28;20632;-76
2022/03/02 01:38:53;;;;;;;15.63;6.40;;;;;;;-145.69;76.68;73653.56;5096541;28;20206;-76
2022/03/02 01:41:22;;;;;;;12.67;6.20;;;;;;;-145.69;77.34;73647.59;5096790;28;20285;-76
2022/03/02 01:43:50;;;;;;;13.70;5.70;;;;;;;-145.69;77.29;73649.59;5096437;28;20226;-76
2022/03/02 01:46:18;;;;;;;13.90;6.63;;;;;;;-145.69;77.15;73645.59;5096325;28;20210;-76
2022/03/02 01:48:45;;;;;;;11.40;5.67;;;;;;;-145.69;77.14;73625.69;5096446;28;20293;-76
2022/03/02 01:51:12;;;;;;;12.33;5.80;;;;;;;-145.69;77.72;73615.72;5096108;28;20198;-76
2022/03/02 01:53:38;;;;;;;12.60;6.30;;;;;;;-145.69;75.28;73591.84;5096436;28;20310;-76
2022/03/02 01:56:09;;;;;;;13.93;6.17;;;;;;;-145.69;75.60;73589.84;5098612;28;20263;-76
2022/03/02 01:58:36;;;;;;;15.30;6.57;;;;;;;-145.69;74.86;73593.84;5116765;28;20201;-76
2022/03/02 02:01:03;;;;;;;18.30;6.47;;;;;;;-145.69;77.13;73603.78;5116474;28;20201;-76
2022/03/02 02:03:31;;;;;;;13.90;6.33;;;;;;;-145.69;76.25;73603.78;5116331;28;20204;-76
2022/03/02 02:05:58;;;;;;;11.97;5.50;;;;;;;-145.69;75.24;73591.84;5116172;28;20238;-76
2022/03/02 02:08:27;;;;;;;15.53;6.00;;;;;;;-145.69;76.04;73599.81;5116400;28;20208;-76
2022/03/02 02:10:56;;;;;;;14.80;6.03;;;;;;;-145.69;75.69;73599.81;5116167;28;20237;-76
2022/03/02 02:13:24;;;;;;;18.00;6.38;;;;;;;-145.69;75.31;73595.81;5115782;28;20442;-76
2022/03/02 02:15:52;;;;;;;12.87;5.67;;;;;;;-145.69;75.55;73591.84;5116330;28;20209;-76
2022/03/02 02:18:18;;;;;;;13.33;5.93;;;;;;;-145.69;76.00;73599.81;5114087;28;20201;-76
2022/03/02 02:20:47;;;;;;;15.07;5.80;;;;;;;-145.69;77.06;73619.72;5116385;28;20206;-76
2022/03/02 02:23:14;;;;;;;13.33;5.60;;;;;;;-145.69;75.88;73619.72;5116184;28;20203;-76
2022/03/02 02:25:43;;;;;;;13.40;4.90;;;;;;;-145.69;75.37;73619.72;5116020;27;20237;-76
2022/03/02 02:28:19;;;;;;;15.23;5.50;;;;;;;-145.69;74.83;73611.75;5098087;28;20548;-76
2022/03/02 02:30:47;;;;;;;11.20;5.03;;;;;;;-145.69;75.10;73611.75;5095463;28;20247;-76
2022/03/02 02:33:14;;;;;;;11.17;5.53;;;;;;;-145.69;75.74;73619.72;5096453;28;20551;-76
2022/03/02 02:35:40;;;;;;;10.20;4.93;;;;;;;-145.69;75.82;73625.69;5095399;28;20201;-76
2022/03/02 02:38:08;;;;;;;10.13;5.00;;;;;;;-145.69;75.94;73619.72;5095314;28;20206;-76
2022/03/02 02:40:35;;;;;;;11.73;5.03;;;;;;;-145.69;75.21;73611.75;5093511;28;20191;-76
2022/03/02 02:43:02;;;;;;;17.07;5.90;;;;;;;-145.69;75.21;73601.81;5074833;28;20198;-76
2022/03/02 02:45:28;;;;;;;11.82;6.32;;;;;;;-145.69;74.61;73601.81;5073808;28;20461;-76
2022/03/02 02:47:58;;;;;;;12.73;5.87;;;;;;;-145.69;75.28;73609.75;5077053;28;20279;-76
2022/03/02 02:50:30;;;;;;;12.73;5.43;;;;;;;-145.69;74.41;73589.84;5115582;27;20283;-76
2022/03/02 02:52:58;;;;;;;16.47;5.13;;;;;;;-145.69;73.42;73583.88;5115626;28;20209;-76
2022/03/02 02:55:29;;;;;;;13.20;5.53;;;;;;;-145.69;73.73;73587.88;5115557;28;20251;-76
2022/03/02 02:57:57;;;;;;;11.73;5.70;;;;;;;-145.69;74.75;73593.84;5113586;27;20259;-76
2022/03/02 03:00:26;;;;;;;12.80;5.60;;;;;;;-145.69;74.89;73601.81;5095373;27;20201;-76
2022/03/02 03:02:57;;;;;;;12.70;4.93;;;;;;;-145.69;75.23;73609.75;5094970;28;20224;-76
2022/03/02 03:05:26;;;;;;;13.03;5.50;;;;;;;-145.69;76.18;73615.72;5094830;28;20230;-76
2022/03/02 03:07:53;;;;;;;10.97;5.47;;;;;;;-145.69;76.93;73615.72;5094673;28;20664;-76
2022/03/02 03:10:21;;;;;;;12.10;5.37;;;;;;;-145.69;76.61;73603.78;5094615;28;20206;-76
2022/03/02 03:12:49;;;;;;;14.63;5.40;;;;;;;-145.69;76.39;73601.81;5094700;28;20584;-76
2022/03/02 03:15:17;;;;;;;14.43;5.33;;;;;;;-145.69;76.40;73601.81;5094728;28;20293;-76
2022/03/02 03:17:45;;;;;;;11.47;5.13;;;;;;;-145.69;75.28;73603.78;5094772;28;20542;-76
2022/03/02 03:20:13;;;;;;;16.30;5.50;;;;;;;-145.69;75.94;73599.81;5113806;28;20229;-76
2022/03/02 03:22:40;;;;;;;9.87;5.50;;;;;;;-145.69;76.80;73611.75;5114340;28;20201;-76
2022/03/02 03:25:08;;;;;;;12.67;5.50;;;;;;;-145.69;75.65;73601.81;5114707;28;20229;-76
2022/03/02 03:27:37;;;;;;;14.57;5.90;;;;;;;-145.69;77.00;73611.75;5115028;28;20201;-77
2022/03/02 03:30:06;;;;;;;14.60;5.30;;;;;;;-145.69;77.18;73621.72;5114878;28;20285;-77
2022/03/02 03:32:33;;;;;;;14.07;5.97;;;;;;;-145.69;77.94;73621.72;5114753;28;20208;-76
2022/03/02 03:35:00;;;;;;;15.57;5.87;;;;;;;-145.69;78.45;73627.69;5114712;27;20331;-76
2022/03/02 03:37:27;;;;;;;11.93;5.90;;;;;;;-145.69;78.71;73633.66;5114559;28;20223;-76
2022/03/02 03:39:53;;;;;;;17.60;6.20;;;;;;;-145.69;79.14;73647.59;5114689;28;20201;-76
2022/03/02 03:42:20;;;;;;;16.20;6.13;;;;;;;-145.69;79.31;73659.53;5114499;28;20229;-76
2022/03/02 03:44:46;;;;;;;13.63;6.03;;;;;;;-145.69;79.98;73665.50;5114449;28;20224;-76
2022/03/02 03:47:14;;;;;;;12.97;5.93;;;;;;;-145.69;80.99;73675.47;5114519;28;20198;-76
2022/03/02 03:49:41;;;;;;;15.97;6.30;;;;;;;-145.69;81.88;73687.41;5096272;28;20220;-76
2022/03/02 03:52:08;;;;;;;16.43;6.03;;;;;;;-145.69;81.87;73695.38;5094087;28;20198;-76
2022/03/02 03:54:35;;;;;;;15.07;6.20;;;;;;;-145.69;83.22;73703.34;5093828;28;20687;-76
2022/03/02 03:57:02;;;;;;;13.70;6.20;;;;;;;-145.69;83.94;73715.28;5093841;28;20206;-76
2022/03/02 03:59:29;;;;;;;15.80;6.23;;;;;;;-145.69;85.68;73715.28;5093911;28;20544;-76
2022/03/02 04:01:55;;;;;;;13.83;5.97;;;;;;;-145.69;85.89;73731.22;5093832;28;20204;-76
2022/03/02 04:04:25;;;;;;;15.87;6.87;;;;;;;-145.69;86.21;73729.22;5093660;28;20229;-76
2022/03/02 04:06:51;;;;;;;14.20;6.93;;;;;;;-145.69;84.44;73691.38;5093868;28;20206;-76
2022/03/02 04:09:18;;;;;;;20.53;5.70;;;;;;;-145.69;82.51;73667.50;5093655;28;20564;-76
2022/03/02 04:11:45;;;;;;;16.40;6.33;;;;;;;-145.69;81.54;73671.47;5093795;28;20213;-76
2022/03/02 04:14:12;;;;;;;14.40;6.85;;;;;;;-145.69;81.61;73655.56;5093327;28;20436;-76
2022/03/02 04:16:41;;;;;;;15.60;6.50;;;;;;;-145.69;81.50;73651.56;5093565;28;20205;-76
2022/03/02 04:19:08;;;;;;;16.97;6.47;;;;;;;-145.69;82.46;73671.47;5097104;28;20261;-75
2022/03/02 04:21:36;;;;;;;13.43;6.63;;;;;;;-145.69;82.67;73669.50;5090508;28;20236;-76
2022/03/02 04:24:02;;;;;;;18.13;6.27;;;;;;;-145.69;82.48;73665.50;5093482;28;20204;-76
2022/03/02 04:26:29;;;;;;;14.57;6.73;;;;;;;-145.69;83.28;73657.53;5093422;28;20260;-76
2022/03/02 04:28:57;;;;;;;17.37;6.17;;;;;;;-145.69;83.26;73657.53;5093440;28;20202;-76
2022/03/02 04:31:24;;;;;;;18.03;7.03;;;;;;;-145.69;83.59;73659.53;5093242;28;20657;-76
2022/03/02 04:33:51;;;;;;;13.13;6.30;;;;;;;-145.69;83.47;73649.59;5092675;28;20244;-76
2022/03/02 04:36:17;;;;;;;21.50;6.90;;;;;;;-145.69;82.45;73639.63;5106611;28;20541;-76
2022/03/02 04:38:45;;;;;;;16.33;6.90;;;;;;;-145.69;83.42;73647.59;5093452;28;20282;-76
2022/03/02 04:41:12;;;;;;;16.23;6.87;;;;;;;-145.69;83.53;73645.59;5093021;28;20194;-76
2022/03/02 04:43:38;;;;;;;16.17;7.07;;;;;;;-145.69;83.45;73649.59;5093130;28;20774;-77
2022/03/02 04:46:05;;;;;;;16.37;6.73;;;;;;;-145.69;85.12;73663.53;5092866;28;20578;-77
2022/03/02 04:48:32;;;;;;;16.73;7.10;;;;;;;-145.69;86.14;73669.50;5092953;28;20665;-76
2022/03/02 04:50:59;;;;;;;15.07;6.90;;;;;;;-145.69;87.79;73685.41;5092964;28;20233;-76
2022/03/02 04:53:25;;;;;;;16.23;7.37;;;;;;;-145.69;88.46;73699.34;5093222;28;20206;-76
2022/03/02 04:55:53;;;;;;;15.00;7.63;;;;;;;-145.69;88.99;73695.38;5093098;28;20263;-76
2022/03/02 04:58:20;;;;;;;18.93;7.87;;;;;;;-145.69;89.21;73691.38;5092881;28;20198;-77
2022/03/02 05:00:47;;;;;;;22.80;8.10;;;;;;;-145.69;88.80;73701.34;5092870;28;20206;-76
2022/03/02 05:03:14;;;;;;;16.93;7.60;;;;;;;-145.69;89.41;73701.34;5093199;28;20202;-76
2022/03/02 05:05:40;;;;;;;19.30;7.57;;;;;;;-145.69;89.63;73707.31;5092532;28;20279;-76
2022/03/02 05:08:08;;;;;;;19.00;7.73;;;;;;;-145.69;90.12;73695.38;5105264;28;20193;-76
2022/03/02 05:10:34;;;;;;;19.73;7.13;;;;;;;-145.69;88.75;73685.41;5113234;28;20203;-76
2022/03/02 05:13:02;;;;;;;16.40;7.63;;;;;;;-145.69;88.57;73695.38;5113160;28;20208;-76
2022/03/02 05:15:30;;;;;;;18.30;7.63;;;;;;;-145.69;89.68;73707.31;5112816;28;20236;-76
2022/03/02 05:17:57;;;;;;;19.30;8.00;;;;;;;-145.69;90.30;73711.31;5113384;28;20250;-76
2022/03/02 05:20:24;;;;;;;19.03;7.60;;;;;;;-145.69;89.69;73695.38;5112858;28;20252;-76
2022/03/02 05:22:51;;;;;;;17.70;7.67;;;;;;;-145.69;90.60;73693.38;5113148;28;20292;-76
2022/03/02 05:25:17;;;;;;;25.37;8.10;;;;;;;-145.69;91.18;73711.31;5113007;28;20320;-76
2022/03/02 05:27:47;;;;;;;16.37;7.27;;;;;;;-145.69;91.47;73727.22;5112979;28;20200;-77
2022/03/02 05:30:15;;;;;;;23.00;8.53;;;;;;;-145.69;92.90;73735.19;5113218;28;20197;-76
2022/03/02 05:32:42;;;;;;;17.60;7.57;;;;;;;-145.69;93.01;73723.25;5113073;28;20262;-77
2022/03/02 05:35:10;;;;;;;21.40;8.10;;;;;;;-145.69;92.27;73709.31;5108077;28;20255;-77
2022/03/02 05:37:42;;;;;;;23.50;8.07;;;;;;;-145.69;92.51;73697.38;5092688;28;20209;-76
2022/03/02 05:40:11;;;;;;;23.77;8.70;;;;;;;-145.69;92.44;73693.38;5092485;28;20301;-76
2022/03/02 05:42:37;;;;;;;17.10;7.33;;;;;;;-145.69;91.92;73683.44;5092430;28;20198;-77
2022/03/02 05:45:04;;;;;;;18.07;8.77;;;;;;;-145.69;90.54;73661.53;5098227;28;20229;-77
2022/03/02 05:47:32;;;;;;;19.83;7.83;;;;;;;-145.69;89.53;73641.63;5116471;28;20193;-76
2022/03/02 05:49:59;;;;;;;18.43;8.30;;;;;;;-145.69;88.61;73619.72;5116571;28;20664;-77
2022/03/02 05:52:25;;;;;;;20.43;7.23;;;;;;;-145.69;86.99;73603.78;5116763;28;20229;-77
2022/03/02 05:54:52;;;;;;;21.73;8.43;;;;;;;-145.69;87.50;73611.75;5109632;28;20679;-77
2022/03/02 05:57:19;;;;;;;18.33;8.23;;;;;;;-145.69;87.14;73607.78;5096393;28;20255;-77
2022/03/02 05:59:45;;;;;;;15.63;6.97;;;;;;;-145.69;85.83;73589.84;5096238;28;20209;-76
2022/03/02 06:02:12;;;;;;;19.50;7.43;;;;;;;-145.69;83.60;73556.00;5095966;28;20198;-76
2022/03/02 06:04:40;;;;;;;17.27;7.73;;;;;;;-145.69;84.18;73550.03;5096069;28;20209;-77
2022/03/02 06:07:07;;;;;;;19.97;7.83;;;;;;;-145.69;84.45;73560.00;5095888;28;20233;-76
2022/03/02 06:09:34;;;;;;;18.67;7.37;;;;;;;-145.69;82.53;73530.13;5095713;28;20201;-77
2022/03/02 06:12:01;;;;;;;14.50;6.70;;;;;;;-145.69;82.35;73512.22;5096086;28;20198;-76
2022/03/02 06:14:28;;;;;;;17.97;7.20;;;;;;;-145.69;81.51;73504.25;5101678;28;20194;-76
2022/03/02 06:16:55;;;;;;;15.13;6.50;;;;;;;-145.69;81.92;73500.25;5116344;27;20212;-76
2022/03/02 06:19:22;;;;;;;17.30;7.07;;;;;;;-145.69;83.29;73504.25;5115951;28;20236;-76
2022/03/02 06:21:51;;;;;;;18.57;7.13;;;;;;;-145.69;81.22;73488.31;5116032;28;20251;-77
2022/03/02 06:24:18;;;;;;;24.73;7.13;;;;;;;-145.69;80.78;73478.34;5116058;28;20200;-77
2022/03/02 06:26:45;;;;;;;19.37;6.83;;;;;;;-145.69;81.50;73468.41;5115891;28;20316;-77
2022/03/02 06:29:12;;;;;;;21.37;7.30;;;;;;;-145.69;80.98;73458.44;5116084;28;20220;-77
2022/03/02 06:31:40;;;;;;;16.43;6.83;;;;;;;-145.69;80.27;73454.47;5115809;28;20241;-77
2022/03/02 06:34:07;;;;;;;19.50;7.37;;;;;;;-145.69;78.53;73432.56;5115775;28;20206;-77
2022/03/02 06:36:33;;;;;;;16.33;6.97;;;;;;;-145.69;77.05;73428.59;5096790;28;20206;-77
2022/03/02 06:39:01;;;;;;;14.90;6.47;;;;;;;-145.69;74.61;73400.72;5095784;28;20198;-77
2022/03/02 06:41:34;;;;;;;18.87;7.50;;;;;;;-145.69;74.73;73400.72;5095477;28;20202;-77
2022/03/02 06:44:04;;;;;;;24.87;7.73;;;;;;;-145.69;74.38;73388.78;5095546;28;20309;-77
2022/03/02 06:46:38;;;;;;;19.13;6.70;;;;;;;-145.69;72.41;73372.84;5095083;28;20290;-77
2022/03/02 06:49:12;;;;;;;21.37;7.00;;;;;;;-145.69;72.12;73364.88;5081327;28;20202;-77
2022/03/02 06:51:44;;;;;;;24.30;7.67;;;;;;;-145.69;74.68;73372.84;5075387;28;20281;-77
2022/03/02 06:54:13;;;;;;;14.63;5.90;;;;;;;-145.69;75.35;73376.81;5075386;28;20199;-77
2022/03/02 06:56:48;;;;;;;19.00;7.50;;;;;;;-145.69;74.87;73380.81;5088502;28;20201;-77
2022/03/02 06:59:20;;;;;;;17.80;6.57;;;;;;;-145.69;74.52;73372.84;5115022;28;20200;-77
2022/03/02 07:01:52;;;;;;;17.37;6.27;;;;;;;-145.69;72.21;73364.88;5115624;28;20233;-77
2022/03/02 07:04:22;;;;;;;17.17;6.23;;;;;;;-145.69;70.23;73352.94;5115557;28;20265;-76
2022/03/02 07:06:49;;;;;;;19.30;7.10;;;;;;;-145.69;71.13;73350.94;5115562;28;20249;-77
2022/03/02 07:09:17;;;;;;;15.97;6.40;;;;;;;-145.69;70.18;73341.00;5115444;28;20738;-76
2022/03/02 07:11:44;;;;;;;17.97;6.53;;;;;;;-145.69;70.80;73339.00;5115508;27;20193;-77
2022/03/02 07:14:15;;;;;;;16.97;6.57;;;;;;;-145.69;69.43;73350.94;5115081;28;20208;-76
2022/03/02 07:16:43;;;;;;;15.70;6.40;;;;;;;-145.69;71.24;73344.97;5115217;28;20201;-77
2022/03/02 07:19:10;;;;;;;16.30;6.40;;;;;;;-145.69;72.56;73356.91;5115011;28;20233;-77
2022/03/02 07:21:40;;;;;;;16.90;7.07;;;;;;;-145.69;73.50;73354.94;5115171;28;20197;-77
2022/03/02 07:24:11;;;;;;;15.10;6.63;;;;;;;-145.69;74.31;73352.94;5115108;28;20206;-77
2022/03/02 07:26:45;;;;;;;17.03;6.20;;;;;;;-145.69;74.23;73352.94;5109345;28;20221;-77
2022/03/02 07:29:15;;;;;;;14.83;6.30;;;;;;;-145.69;72.73;73346.97;5094843;28;20198;-76
2022/03/02 07:31:43;;;;;;;19.25;8.48;;;;;;;-145.69;74.32;73337.00;5094116;28;20519;-77
2022/03/02 07:34:12;;;;;;;16.73;7.10;;;;;;;-145.69;74.24;73319.09;5094606;28;20198;-77
2022/03/02 07:36:40;;;;;;;19.43;7.53;;;;;;;-145.69;74.36;73307.16;5094666;28;20202;-77
2022/03/02 07:39:07;;;;;;;16.70;6.30;;;;;;;-145.69;74.36;73295.19;5094451;28;20293;-78
2022/03/02 07:41:33;;;;;;;16.83;6.40;;;;;;;-145.69;72.97;73285.25;5094651;28;20228;-78
2022/03/02 07:44:04;;;;;;;15.70;6.20;;;;;;;-145.69;73.38;73271.31;5094371;28;20657;-78
2022/03/02 07:46:34;;;;;;;17.67;7.20;;;;;;;-145.69;71.25;73239.47;5094383;28;20696;-77
2022/03/02 07:49:02;;;;;;;22.57;7.57;;;;;;;-145.69;69.36;73213.56;5094316;28;20581;-77
2022/03/02 07:51:28;;;;;;;16.57;6.60;;;;;;;-145.69;68.98;73175.75;5094256;28;20198;-77
2022/03/02 07:54:01;;;;;;;13.90;5.90;;;;;;;-145.69;64.34;73126.00;5094539;28;20202;-77
2022/03/02 07:56:29;;;;;;;19.53;6.30;;;;;;;-145.69;60.84;73090.16;5100924;28;20217;-77
2022/03/02 07:59:02;;;;;;;13.00;6.00;;;;;;;-145.69;61.38;73058.31;5114478;28;20201;-77
2022/03/02 08:01:28;;;;;;;15.90;6.40;;;;;;;-145.69;57.70;73014.50;5114403;28;20305;-77
2022/03/02 08:03:58;;;;;;;16.30;6.20;;;;;;;-145.69;53.13;72966.72;5114388;28;20201;-77
2022/03/02 08:06:28;;;;;;;12.97;6.00;;;;;;;-145.69;52.38;72940.84;5114255;27;20221;-78
2022/03/02 08:09:04;;;;;;;12.43;5.77;;;;;;;-145.69;52.64;72903.03;5114042;28;20198;-77
2022/03/02 08:11:33;;;;;;;15.67;5.33;;;;;;;-145.69;54.57;72887.09;5113833;28;20201;-77
2022/03/02 08:14:03;;;;;;;11.63;5.57;;;;;;;-145.69;53.83;72857.25;5114177;28;20281;-77
2022/03/02 08:16:31;;;;;;;12.20;5.27;;;;;;;-145.69;52.42;72829.38;5114067;28;20197;-77
2022/03/02 08:19:00;;;;;;;11.80;5.23;;;;;;;-145.69;49.80;72819.44;5113872;28;20229;-77
2022/03/02 08:21:29;;;;;;;19.57;5.87;;;;;;;-145.69;50.74;72831.38;5113944;28;20200;-77
2022/03/02 08:24:03;;;;;;;16.10;5.27;;;;;;;-145.69;51.80;72807.47;5113843;28;20193;-78
2022/03/02 08:26:40;;;;;;;13.23;6.30;;;;;;;-145.69;52.87;72791.56;5106140;28;20581;-77
2022/03/02 08:29:10;;;;;;;15.10;5.93;;;;;;;-145.69;52.71;72743.78;5093588;28;20201;-77
2022/03/02 08:31:39;;;;;;;14.03;6.00;;;;;;;-145.69;50.31;72664.16;5093485;28;20202;-78
2022/03/02 08:34:07;;;;;;;9.80;5.10;;;;;;;-145.69;46.70;72626.34;5093384;28;20202;-78
2022/03/02 08:36:34;;;;;;;14.87;5.60;;;;;;;-145.69;43.95;72594.50;5093312;28;20234;-78
2022/03/02 08:39:01;;;;;;;12.23;5.27;;;;;;;-145.69;39.71;72594.50;5093420;28;20247;-78
2022/03/02 08:41:28;;;;;;;10.97;4.97;;;;;;;-145.69;40.74;72554.69;5093327;28;20649;-78
2022/03/02 08:43:56;;;;;;;13.37;4.57;;;;;;;-145.69;37.45;72580.56;5093154;28;20238;-77
2022/03/02 08:46:28;;;;;;;10.20;4.90;;;;;;;-145.69;36.63;72576.59;5092942;28;20222;-77
2022/03/02 08:49:02;;;;;;;10.80;5.30;;;;;;;-145.69;35.62;72596.50;5093351;28;20198;-77
2022/03/02 08:51:34;;;;;;;9.23;4.70;;;;;;;-145.69;37.37;72546.72;5091184;28;20207;-77
2022/03/02 08:54:03;;;;;;;11.20;4.73;;;;;;;-145.69;37.38;72524.84;5093109;28;20237;-77
2022/03/02 08:56:37;;;;;;;10.00;5.23;;;;;;;-145.69;36.14;72510.91;5100143;28;20215;-77
2022/03/02 08:59:05;;;;;;;8.87;4.70;;;;;;;-145.69;35.37;72475.06;5113276;28;20193;-78
2022/03/02 09:01:33;;;;;;;15.63;7.77;;;;;;;-145.69;37.32;72494.97;5111720;28;20200;-78
2022/03/02 09:04:03;;;;;;;17.07;8.37;;;;;;;-145.69;36.87;72516.88;5113536;28;20212;-77
2022/03/02 09:06:32;;;;;;;18.23;7.03;;;;;;;-145.69;37.01;72449.19;5113538;28;20307;-77
2022/03/02 09:09:03;;;;;;;22.23;9.07;;;;;;;-145.69;37.47;72429.28;5108804;28;20191;-76
2022/03/02 09:11:38;;;;;;;20.10;9.87;;;;;;;-145.69;39.46;72471.09;5093252;28;20194;-77
2022/03/02 09:14:10;;;;;;;18.57;9.03;;;;;;;-145.69;43.38;72427.31;5093120;28;20229;-76
2022/03/02 09:16:40;;;;;;;19.63;9.00;;;;;;;-145.69;46.06;72429.28;5092852;28;20206;-76
2022/03/02 09:19:07;;;;;;;20.13;10.87;;;;;;;-145.69;45.20;72437.25;5092633;28;20234;-76
2022/03/02 09:21:36;;;;;;;15.37;8.67;;;;;;;-145.69;42.47;72409.38;5095194;28;20228;-77
2022/03/02 09:24:03;;;;;;;18.93;8.93;;;;;;;-145.69;39.78;72381.53;5097039;28;20251;-76
2022/03/02 09:26:36;;;;;;;14.07;5.73;;;;;;;-145.69;37.69;72341.72;5102938;28;20220;-76
2022/03/02 09:29:07;;;;;;;11.90;5.80;;;;;;;-145.69;36.65;72301.91;5117196;28;20328;-78
2022/03/02 09:31:39;;;;;;;14.10;5.30;;;;;;;-145.69;35.77;72246.19;5116952;27;20197;-77
2022/03/02 09:34:09;;;;;;;12.53;5.20;;;;;;;-145.69;34.67;72264.09;5117196;28;20692;-77
2022/03/02 09:36:38;;;;;;;17.03;5.57;;;;;;;-145.69;34.44;72258.13;5117006;28;20721;-77
2022/03/02 09:39:05;;;;;;;10.57;5.57;;;;;;;-145.69;35.53;72266.09;5111635;28;20201;-78
2022/03/02 09:41:49;;;;;;;9.73;5.27;;;;;;;-145.69;34.99;72234.25;5096572;28;20209;-78
2022/03/02 09:44:19;;;;;;;12.07;5.60;;;;;;;-145.69;34.13;72198.41;5100426;28;20572;-77
2022/03/02 09:46:51;;;;;;;14.13;5.40;;;;;;;-145.69;33.52;72204.38;5116621;28;20229;-79
2022/03/02 09:49:22;;;;;;;14.23;6.17;;;;;;;-145.69;33.10;72214.34;5116763;28;20564;-77
2022/03/02 09:51:57;;;;;;;11.57;6.27;;;;;;;-145.69;33.49;72152.66;5100797;28;20221;-77
2022/03/02 09:54:26;;;;;;;13.23;6.27;;;;;;;-145.69;34.07;72166.56;5096307;28;20274;-76
2022/03/02 09:56:57;;;;;;;12.73;6.23;;;;;;;-145.69;34.15;72166.56;5096245;28;20206;-77
2022/03/02 09:59:26;;;;;;;14.23;6.47;;;;;;;-145.69;33.79;72094.94;5095930;28;20725;-77
2022/03/02 10:01:58;;;;;;;12.53;6.40;;;;;;;-145.69;33.84;72069.06;5096227;28;20202;-76
2022/03/02 10:04:30;;;;;;;19.03;9.20;;;;;;;-145.69;38.11;72053.13;5096121;28;20614;-78
2022/03/02 10:07:26;;;;;;;20.35;10.65;;;;;;;-145.69;39.21;72033.22;5094650;28;20521;-76
2022/03/02 10:09:48;;;;;;;17.43;9.43;;;;;;;-145.69;40.34;72067.06;5095649;28;20198;-76
2022/03/02 10:12:16;;;;;;;21.77;9.73;;;;;;;-145.69;39.71;72039.19;5096008;28;20282;-76
2022/03/02 10:14:44;;;;;;;18.03;9.33;;;;;;;-145.69;39.21;72029.25;5095755;28;20256;-76
2022/03/02 10:17:20;;;;;;;18.37;8.90;;;;;;;-145.69;40.60;72065.06;5095737;28;20225;-78
2022/03/02 10:19:53;;;;;;;18.13;9.83;;;;;;;-145.69;40.40;72067.06;5095639;28;20233;-78
2022/03/02 10:22:48;;;;;;;22.77;9.33;;;;;;;-145.69;42.87;72124.78;5095509;28;20687;-78
2022/03/02 10:25:16;;;;;;;15.67;8.37;;;;;;;-145.69;42.21;72092.94;5096747;28;20217;-78
2022/03/02 10:27:59;;;;;;;21.67;9.47;;;;;;;-145.69;41.82;72152.66;5095407;28;20236;-78
2022/03/02 10:30:33;;;;;;;19.07;8.87;;;;;;;-145.69;40.93;72122.78;5095425;28;20728;-78
2022/03/02 10:33:24;;;;;;;14.50;6.90;;;;;;;-145.69;34.88;72168.56;5094461;28;20202;-78
2022/03/02 10:35:53;;;;;;;14.30;6.70;;;;;;;-145.69;35.70;72164.59;5095601;28;20209;-78
2022/03/02 10:38:46;;;;;;;11.00;6.80;;;;;;;-145.69;35.31;72218.31;5095243;28;20221;-78
2022/03/02 10:41:13;;;;;;;17.83;6.83;;;;;;;-145.69;36.88;72226.28;5099784;28;20675;-78
2022/03/02 10:43:42;;;;;;;14.03;7.03;;;;;;;-145.69;37.09;72182.50;5115630;28;20198;-78
2022/03/02 10:46:11;;;;;;;14.90;7.70;;;;;;;-145.69;36.01;72150.66;5115049;27;20431;-78
2022/03/02 10:48:52;;;;;;;17.47;7.77;;;;;;;-145.69;37.60;72220.31;5115446;28;20343;-78
2022/03/02 10:51:23;;;;;;;16.53;8.60;;;;;;;-145.69;38.99;72206.38;5115506;28;20287;-78
2022/03/02 10:53:53;;;;;;;19.10;8.43;;;;;;;-145.69;39.79;72254.16;5115525;28;20201;-78
2022/03/02 10:56:21;;;;;;;17.93;8.87;;;;;;;-145.69;39.19;72190.47;5094616;28;20205;-78
2022/03/02 10:58:53;;;;;;;16.27;8.03;;;;;;;-145.69;39.88;72206.38;5074243;28;20209;-78
2022/03/02 11:01:24;;;;;;;18.83;8.47;;;;;;;-145.69;37.90;72114.81;5074703;28;20623;-78
2022/03/02 11:03:54;;;;;;;18.13;8.73;;;;;;;-145.69;38.60;72037.22;5074796;28;20194;-78
2022/03/02 11:06:25;;;;;;;16.47;8.60;;;;;;;-145.69;37.29;72011.34;5074761;28;20206;-78
2022/03/02 11:08:54;;;;;;;19.70;9.50;;;;;;;-145.69;37.88;72031.25;5074494;28;20650;-78
2022/03/02 11:11:25;;;;;;;17.03;8.57;;;;;;;-145.69;36.63;71975.50;5088047;28;20194;-78
2022/03/02 11:13:53;;;;;;;22.23;8.80;;;;;;;-145.69;35.65;71939.69;5115064;28;20606;-78
2022/03/02 11:16:21;;;;;;;20.83;9.43;;;;;;;-145.69;36.61;72102.88;5115079;28;20224;-78